Time;durP1;ratioP1;P1;durP2;ratioP2;P2;SDS_P1;SDS_P2;PMS_P1;PMS_P2;Temp;Humidity;BMP_temperature;BMP_pressure;BME280_temperature;BME280_humidity;BME280_pressure;Samples;Min_cycle;Max_cycle;Signal;HPM_P1;HPM_P2
2024/03/24 00:01:41;;;;;;;16.90;8.00;;;;;;;2.84;100.00;99096.96;669761;1263;138884;-80
2024/03/24 00:16:43;;;;;;;25.30;9.90;;;;;;;2.82;100.00;99104.50;669602;1265;138990;-79
2024/03/24 00:31:45;;;;;;;24.80;9.50;;;;;;;2.97;100.00;99103.20;669719;1263;138781;-82
2024/03/24 00:46:49;;;;;;;22.00;10.30;;;;;;;3.68;100.00;99102.00;669269;1262;138821;-80
2024/03/24 01:01:54;;;;;;;20.90;10.10;;;;;;;3.95;100.00;99091.75;668661;1263;139096;-79
2024/03/24 01:16:55;;;;;;;29.10;12.40;;;;;;;4.05;100.00;99073.81;669455;1262;139414;-80
2024/03/24 01:31:58;;;;;;;30.30;14.10;;;;;;;4.22;100.00;99055.31;670496;1263;138985;-82
2024/03/24 01:47:00;;;;;;;26.00;13.00;;;;;;;4.28;100.00;99036.34;669232;1272;139343;-80
2024/03/24 02:02:02;;;;;;;24.60;11.60;;;;;;;4.41;100.00;99027.12;671416;1262;138999;-80
2024/03/24 02:17:04;;;;;;;29.70;12.50;;;;;;;4.37;100.00;99006.67;671123;1262;139898;-80
2024/03/24 02:32:07;;;;;;;30.50;13.10;;;;;;;4.49;100.00;98996.89;670328;1262;140358;-81
2024/03/24 02:47:10;;;;;;;27.80;12.80;;;;;;;4.43;100.00;98985.95;670550;1263;138787;-80
2024/03/24 03:02:12;;;;;;;25.30;11.90;;;;;;;4.42;100.00;98992.38;671313;1263;138783;-80
2024/03/24 03:17:15;;;;;;;25.20;12.30;;;;;;;4.44;100.00;98996.27;671782;1263;139555;-80
2024/03/24 03:32:20;;;;;;;27.30;13.80;;;;;;;4.55;100.00;99003.00;671373;1273;139482;-81
2024/03/24 03:47:26;;;;;;;31.60;15.70;;;;;;;4.54;100.00;99009.45;670711;1263;138936;-81
2024/03/24 04:02:33;;;;;;;27.70;12.90;;;;;;;4.69;100.00;99018.45;671439;1267;139305;-80
2024/03/24 04:17:37;;;;;;;26.80;13.30;;;;;;;4.78;100.00;99010.40;671887;1263;139629;-79
2024/03/24 04:32:39;;;;;;;31.40;13.40;;;;;;;4.88;100.00;99008.31;672064;1261;139401;-81
2024/03/24 04:47:41;;;;;;;23.90;11.50;;;;;;;4.83;100.00;99003.91;671404;1259;215418;-80
2024/03/24 05:02:45;;;;;;;21.20;10.00;;;;;;;4.90;100.00;99000.92;671034;1263;139073;-79
2024/03/24 05:17:50;;;;;;;20.60;9.20;;;;;;;4.99;100.00;99004.29;670929;1271;138814;-80
2024/03/24 05:32:52;;;;;;;21.30;9.30;;;;;;;5.02;100.00;99007.39;670181;1271;138915;-80
2024/03/24 05:47:55;;;;;;;41.00;15.70;;;;;;;5.00;100.00;99014.63;669289;1263;138935;-77
2024/03/24 06:02:57;;;;;;;20.50;9.30;;;;;;;5.08;100.00;99004.54;670122;1261;139026;-80
2024/03/24 06:18:04;;;;;;;15.50;7.30;;;;;;;5.38;100.00;99003.75;670140;1261;139128;-81
2024/03/24 06:33:09;;;;;;;11.70;6.20;;;;;;;5.49;100.00;99005.23;670957;1260;138726;-78
2024/03/24 06:48:11;;;;;;;10.30;6.40;;;;;;;5.68;100.00;99012.80;673818;1262;139564;-79
2024/03/24 07:03:13;;;;;;;12.90;7.00;;;;;;;5.82;100.00;99021.25;669636;1258;139560;-78
2024/03/24 07:18:16;;;;;;;15.70;6.60;;;;;;;5.89;100.00;99029.35;669919;1274;138873;-79
2024/03/24 07:33:18;;;;;;;14.30;7.20;;;;;;;6.26;100.00;99027.33;668777;1260;140438;-80
2024/03/24 07:48:20;;;;;;;12.70;7.70;;;;;;;6.26;100.00;99025.08;669173;1262;138495;-79
2024/03/24 08:03:22;;;;;;;20.30;9.70;;;;;;;6.24;99.97;99021.00;674349;1258;139874;-78
2024/03/24 08:18:24;;;;;;;14.30;7.40;;;;;;;8.12;94.41;99006.05;674947;1257;138935;-80
2024/03/24 08:33:26;;;;;;;37.60;18.40;;;;;;;10.30;88.64;98994.11;680597;1257;138884;-80
2024/03/24 08:48:29;;;;;;;21.60;9.70;;;;;;;10.17;84.69;99002.52;674322;1261;138758;-80
2024/03/24 09:03:43;;;;;;;17.10;8.80;;;;;;;9.37;78.46;98998.70;671653;1272;140021;-80
2024/03/24 09:18:48;;;;;;;14.60;6.30;;;;;;;10.59;76.14;98997.48;669624;1260;140582;-81
2024/03/24 09:33:50;;;;;;;13.40;6.30;;;;;;;12.27;69.06;98991.92;671313;1261;138917;-80
2024/03/24 09:48:54;;;;;;;8.60;4.00;;;;;;;12.33;65.05;98994.40;669742;1263;140319;-79
2024/03/24 10:03:56;;;;;;;12.60;5.80;;;;;;;11.06;66.37;99004.81;675251;1257;138091;-80
2024/03/24 10:19:09;;;;;;;12.70;6.70;;;;;;;11.39;67.56;98995.35;674263;1260;138548;-80
2024/03/24 10:34:13;;;;;;;9.20;5.40;;;;;;;11.04;65.51;98989.58;674942;1257;139997;-80
2024/03/24 10:49:20;;;;;;;10.90;5.30;;;;;;;10.23;66.41;98984.63;675374;1258;138426;-80
2024/03/24 11:04:22;;;;;;;10.90;6.40;;;;;;;10.23;67.35;98979.46;674872;1260;138954;-80
2024/03/24 11:19:26;;;;;;;13.10;7.40;;;;;;;10.97;66.19;98968.09;670135;1257;138690;-79
2024/03/24 11:34:28;;;;;;;13.60;7.00;;;;;;;10.42;69.73;98972.00;667959;1262;139111;-81
2024/03/24 11:49:45;;;;;;;14.80;8.50;;;;;;;10.97;69.83;98959.91;675223;1259;139052;-81
2024/03/24 12:04:48;;;;;;;12.60;5.90;;;;;;;10.36;66.22;98953.36;670355;1261;138640;-80
2024/03/24 12:19:51;;;;;;;9.60;5.90;;;;;;;11.58;65.79;98951.36;669482;1261;139095;-79
2024/03/24 12:34:58;;;;;;;11.00;6.20;;;;;;;11.22;64.76;98938.79;674730;1262;138967;-80
2024/03/24 12:50:01;;;;;;;14.20;7.70;;;;;;;11.56;64.59;98926.25;678124;1259;139335;-79
2024/03/24 13:05:23;;;;;;;10.60;6.00;;;;;;;11.07;63.35;98918.07;675782;1260;138896;-79
2024/03/24 13:20:27;;;;;;;8.90;4.10;;;;;;;10.74;61.58;98918.40;676124;1261;138832;-80
2024/03/24 13:35:29;;;;;;;9.90;3.50;;;;;;;9.80;58.79;98914.61;670891;1259;138871;-79
2024/03/24 13:50:34;;;;;;;11.30;6.20;;;;;;;10.80;58.61;98894.27;670836;1256;137048;-79
2024/03/24 14:05:36;;;;;;;10.80;6.20;;;;;;;10.85;60.04;98884.49;668748;1260;138563;-78
2024/03/24 14:20:50;;;;;;;45.10;19.10;;;;;;;11.13;61.62;98884.83;672569;1261;139920;-79
2024/03/24 14:36:13;;;;;;;47.90;22.60;;;;;;;10.42;62.26;98875.98;672255;1263;138840;-80
2024/03/24 14:51:16;;;;;;;11.80;7.00;;;;;;;10.88;63.02;98868.61;673151;1260;140093;-79
2024/03/24 15:06:19;;;;;;;14.50;8.00;;;;;;;10.58;61.00;98857.36;674252;1272;138968;-79
2024/03/24 15:21:20;;;;;;;45.60;17.00;;;;;;;10.39;60.94;98853.13;678424;1260;139865;-80
2024/03/24 15:36:23;;;;;;;14.10;7.90;;;;;;;9.98;61.77;98848.73;672851;1261;138851;-78
2024/03/24 15:51:25;;;;;;;14.40;7.80;;;;;;;9.73;62.58;98851.98;675570;1260;139354;-78
2024/03/24 16:06:27;;;;;;;15.70;8.40;;;;;;;9.76;64.59;98865.83;675585;1263;139287;-79
2024/03/24 16:22:04;;;;;;;17.80;8.70;;;;;;;8.94;66.55;98875.01;671815;1259;139119;-78
2024/03/24 16:37:06;;;;;;;22.80;9.40;;;;;;;7.28;71.69;98871.83;671016;1261;139695;-80
2024/03/24 16:52:08;;;;;;;30.50;14.70;;;;;;;6.80;73.70;98872.91;670891;1262;166612;-79
2024/03/24 17:07:10;;;;;;;119.80;71.40;;;;;;;7.52;70.51;98887.97;675054;1273;139243;-79
2024/03/24 17:22:13;;;;;;;83.10;41.30;;;;;;;7.56;69.72;98898.26;675143;1260;140030;-79
2024/03/24 17:37:15;;;;;;;57.40;24.30;;;;;;;7.21;71.56;98905.80;677720;1262;139328;-79
2024/03/24 17:52:17;;;;;;;72.50;29.40;;;;;;;6.67;76.12;98911.16;677388;1263;139753;-79
2024/03/24 18:22:44;;;;;;;47.00;22.60;;;;;;;4.85;90.19;98911.45;673810;1262;139651;-79
2024/03/24 18:37:50;;;;;;;55.40;20.50;;;;;;;4.87;91.20;98909.12;680336;1261;139131;-79
2024/03/24 18:52:55;;;;;;;114.70;39.00;;;;;;;4.69;93.36;98896.14;677583;1262;139323;-80
2024/03/24 19:07:57;;;;;;;32.40;14.20;;;;;;;4.70;93.30;98893.48;673150;1263;139334;-80
2024/03/24 19:23:00;;;;;;;16.50;9.20;;;;;;;4.91;93.69;98892.34;675236;1263;139844;-79
2024/03/24 19:38:02;;;;;;;22.80;10.70;;;;;;;5.10;94.91;98905.14;672728;1262;139185;-79
2024/03/24 19:53:04;;;;;;;25.50;12.60;;;;;;;5.02;96.79;98905.82;671501;1262;139430;-79
2024/03/24 20:08:09;;;;;;;18.70;10.60;;;;;;;4.85;99.41;98901.34;671514;1263;140125;-79
2024/03/24 20:23:15;;;;;;;24.00;11.60;;;;;;;4.89;100.00;98888.94;672040;1264;138837;-79
2024/03/24 20:38:18;;;;;;;26.90;12.80;;;;;;;4.79;100.00;98879.13;673627;1262;140078;-79
2024/03/24 20:53:20;;;;;;;20.00;10.80;;;;;;;4.77;100.00;98880.55;679324;1267;139682;-80
2024/03/24 21:08:23;;;;;;;19.20;11.20;;;;;;;4.65;100.00;98871.72;669961;1273;139734;-78
2024/03/24 21:23:25;;;;;;;21.00;11.10;;;;;;;4.48;100.00;98864.00;667903;1262;139150;-78
2024/03/24 21:53:49;;;;;;;21.60;10.30;;;;;;;4.65;98.69;98850.04;669179;1262;139570;-79
2024/03/24 22:08:51;;;;;;;17.70;9.00;;;;;;;4.64;99.80;98844.08;670267;1262;139415;-81
2024/03/24 22:23:54;;;;;;;18.40;8.70;;;;;;;4.80;99.99;98838.17;668767;1262;139235;-80
2024/03/24 22:38:56;;;;;;;17.30;8.90;;;;;;;4.92;100.00;98825.06;667055;1259;139669;-79
2024/03/24 22:53:58;;;;;;;18.10;10.20;;;;;;;5.10;100.00;98821.02;667549;1263;139564;-78
2024/03/24 23:09:01;;;;;;;16.20;8.20;;;;;;;5.10;100.00;98827.65;667043;1273;139606;-78
2024/03/24 23:24:03;;;;;;;16.60;9.30;;;;;;;5.16;100.00;98826.08;667377;1269;138990;-78
2024/03/24 23:39:06;;;;;;;17.80;9.00;;;;;;;5.20;100.00;98820.30;665849;1267;139248;-77
2024/03/24 23:54:08;;;;;;;19.70;9.10;;;;;;;5.13;100.00;98820.91;667654;1265;139149;-79
